sensor_id;sensor_type;location;lat;lon;timestamp;P1;durP1;ratioP1;P2;durP2;ratioP2
64957;SDS011;51486;50.232;19.208;2022-07-29T00:01:04;5.23;;;3.07;;
64957;SDS011;51486;50.232;19.208;2022-07-29T00:03:29;9.80;;;2.83;;
64957;SDS011;51486;50.232;19.208;2022-07-29T00:05:55;9.53;;;3.17;;
64957;SDS011;51486;50.232;19.208;2022-07-29T00:08:20;9.73;;;3.03;;
64957;SDS011;51486;50.232;19.208;2022-07-29T00:10:45;6.70;;;2.07;;
64957;SDS011;51486;50.232;19.208;2022-07-29T00:13:11;13.03;;;3.23;;
64957;SDS011;51486;50.232;19.208;2022-07-29T00:15:37;6.57;;;2.33;;
64957;SDS011;51486;50.232;19.208;2022-07-29T00:18:02;3.93;;;2.20;;
64957;SDS011;51486;50.232;19.208;2022-07-29T00:20:28;4.03;;;2.33;;
64957;SDS011;51486;50.232;19.208;2022-07-29T00:22:54;3.47;;;2.17;;
64957;SDS011;51486;50.232;19.208;2022-07-29T00:25:19;5.10;;;2.90;;
64957;SDS011;51486;50.232;19.208;2022-07-29T00:27:45;3.00;;;1.90;;
64957;SDS011;51486;50.232;19.208;2022-07-29T00:30:11;4.27;;;2.17;;
64957;SDS011;51486;50.232;19.208;2022-07-29T00:32:37;4.20;;;2.13;;
64957;SDS011;51486;50.232;19.208;2022-07-29T00:35:02;6.33;;;2.20;;
64957;SDS011;51486;50.232;19.208;2022-07-29T00:37:47;5.23;;;2.20;;
64957;SDS011;51486;50.232;19.208;2022-07-29T00:40:13;4.57;;;2.20;;
64957;SDS011;51486;50.232;19.208;2022-07-29T00:42:44;3.83;;;2.43;;
64957;SDS011;51486;50.232;19.208;2022-07-29T00:45:13;13.27;;;2.10;;
64957;SDS011;51486;50.232;19.208;2022-07-29T00:47:39;3.17;;;1.90;;
64957;SDS011;51486;50.232;19.208;2022-07-29T00:50:05;2.70;;;1.93;;
64957;SDS011;51486;50.232;19.208;2022-07-29T00:52:33;3.30;;;1.63;;
64957;SDS011;51486;50.232;19.208;2022-07-29T00:55:00;3.50;;;1.70;;
64957;SDS011;51486;50.232;19.208;2022-07-29T00:57:27;2.10;;;1.60;;
64957;SDS011;51486;50.232;19.208;2022-07-29T00:59:53;5.90;;;1.90;;
64957;SDS011;51486;50.232;19.208;2022-07-29T01:02:19;5.87;;;1.70;;
64957;SDS011;51486;50.232;19.208;2022-07-29T01:04:44;3.00;;;1.70;;
64957;SDS011;51486;50.232;19.208;2022-07-29T01:07:10;4.47;;;1.50;;
64957;SDS011;51486;50.232;19.208;2022-07-29T01:09:36;2.33;;;1.47;;
64957;SDS011;51486;50.232;19.208;2022-07-29T01:12:02;2.73;;;1.67;;
64957;SDS011;51486;50.232;19.208;2022-07-29T01:14:28;3.50;;;1.60;;
64957;SDS011;51486;50.232;19.208;2022-07-29T01:16:56;2.97;;;1.40;;
64957;SDS011;51486;50.232;19.208;2022-07-29T01:21:56;2.53;;;1.57;;
64957;SDS011;51486;50.232;19.208;2022-07-29T01:30:08;5.20;;;1.90;;
64957;SDS011;51486;50.232;19.208;2022-07-29T01:32:35;5.87;;;1.80;;
64957;SDS011;51486;50.232;19.208;2022-07-29T01:37:39;4.23;;;1.40;;
64957;SDS011;51486;50.232;19.208;2022-07-29T01:40:57;1.87;;;1.10;;
64957;SDS011;51486;50.232;19.208;2022-07-29T01:43:21;2.03;;;1.17;;
64957;SDS011;51486;50.232;19.208;2022-07-29T01:46:02;4.43;;;1.60;;
64957;SDS011;51486;50.232;19.208;2022-07-29T01:48:39;2.83;;;1.77;;
64957;SDS011;51486;50.232;19.208;2022-07-29T01:51:20;3.33;;;1.50;;
64957;SDS011;51486;50.232;19.208;2022-07-29T01:53:59;1.17;;;1.07;;
64957;SDS011;51486;50.232;19.208;2022-07-29T01:56:35;2.07;;;1.20;;
64957;SDS011;51486;50.232;19.208;2022-07-29T01:59:03;2.70;;;1.50;;
64957;SDS011;51486;50.232;19.208;2022-07-29T02:01:32;1.37;;;1.00;;
64957;SDS011;51486;50.232;19.208;2022-07-29T02:03:58;2.00;;;1.10;;
64957;SDS011;51486;50.232;19.208;2022-07-29T02:06:25;1.93;;;1.10;;
64957;SDS011;51486;50.232;19.208;2022-07-29T02:08:52;5.70;;;1.70;;
64957;SDS011;51486;50.232;19.208;2022-07-29T02:11:19;13.40;;;1.47;;
64957;SDS011;51486;50.232;19.208;2022-07-29T02:13:44;1.90;;;1.17;;
64957;SDS011;51486;50.232;19.208;2022-07-29T02:16:11;3.67;;;1.13;;
64957;SDS011;51486;50.232;19.208;2022-07-29T02:18:39;1.27;;;1.03;;
64957;SDS011;51486;50.232;19.208;2022-07-29T02:21:07;1.70;;;1.20;;
64957;SDS011;51486;50.232;19.208;2022-07-29T02:23:34;5.33;;;1.70;;
64957;SDS011;51486;50.232;19.208;2022-07-29T02:26:00;2.03;;;1.03;;
64957;SDS011;51486;50.232;19.208;2022-07-29T02:28:28;3.13;;;1.37;;
64957;SDS011;51486;50.232;19.208;2022-07-29T02:30:57;2.53;;;1.20;;
64957;SDS011;51486;50.232;19.208;2022-07-29T02:33:26;2.10;;;1.07;;
64957;SDS011;51486;50.232;19.208;2022-07-29T02:35:52;2.53;;;1.07;;
64957;SDS011;51486;50.232;19.208;2022-07-29T02:38:18;3.50;;;1.13;;
64957;SDS011;51486;50.232;19.208;2022-07-29T02:41:08;4.30;;;1.23;;
64957;SDS011;51486;50.232;19.208;2022-07-29T02:43:36;1.53;;;1.10;;
64957;SDS011;51486;50.232;19.208;2022-07-29T02:46:08;1.93;;;1.10;;
64957;SDS011;51486;50.232;19.208;2022-07-29T02:48:38;2.40;;;1.23;;
64957;SDS011;51486;50.232;19.208;2022-07-29T02:51:12;1.80;;;1.13;;
64957;SDS011;51486;50.232;19.208;2022-07-29T02:53:43;2.10;;;1.37;;
64957;SDS011;51486;50.232;19.208;2022-07-29T02:56:13;2.20;;;1.20;;
64957;SDS011;51486;50.232;19.208;2022-07-29T02:58:45;1.43;;;1.00;;
64957;SDS011;51486;50.232;19.208;2022-07-29T03:01:15;2.97;;;1.20;;
64957;SDS011;51486;50.232;19.208;2022-07-29T03:03:44;1.43;;;1.13;;
64957;SDS011;51486;50.232;19.208;2022-07-29T03:06:12;3.40;;;1.30;;
64957;SDS011;51486;50.232;19.208;2022-07-29T03:08:39;1.80;;;1.33;;
64957;SDS011;51486;50.232;19.208;2022-07-29T03:11:05;1.67;;;1.03;;
64957;SDS011;51486;50.232;19.208;2022-07-29T03:13:33;1.50;;;1.03;;
64957;SDS011;51486;50.232;19.208;2022-07-29T03:16:00;0.87;;;0.77;;
64957;SDS011;51486;50.232;19.208;2022-07-29T03:18:26;2.20;;;1.27;;
64957;SDS011;51486;50.232;19.208;2022-07-29T03:20:52;2.43;;;1.07;;
64957;SDS011;51486;50.232;19.208;2022-07-29T03:23:18;2.23;;;1.17;;
64957;SDS011;51486;50.232;19.208;2022-07-29T03:25:45;1.20;;;0.97;;
64957;SDS011;51486;50.232;19.208;2022-07-29T03:28:11;1.00;;;0.80;;
64957;SDS011;51486;50.232;19.208;2022-07-29T03:30:37;1.00;;;0.80;;
64957;SDS011;51486;50.232;19.208;2022-07-29T03:33:02;3.20;;;1.20;;
64957;SDS011;51486;50.232;19.208;2022-07-29T03:35:28;1.43;;;1.27;;
64957;SDS011;51486;50.232;19.208;2022-07-29T03:37:54;3.03;;;1.47;;
64957;SDS011;51486;50.232;19.208;2022-07-29T03:40:22;1.57;;;1.10;;
64957;SDS011;51486;50.232;19.208;2022-07-29T03:42:55;1.20;;;0.90;;
64957;SDS011;51486;50.232;19.208;2022-07-29T03:45:22;1.33;;;1.00;;
64957;SDS011;51486;50.232;19.208;2022-07-29T03:47:50;3.13;;;1.47;;
64957;SDS011;51486;50.232;19.208;2022-07-29T03:50:18;1.50;;;1.07;;
64957;SDS011;51486;50.232;19.208;2022-07-29T03:52:46;1.37;;;0.90;;
64957;SDS011;51486;50.232;19.208;2022-07-29T03:55:12;1.90;;;1.23;;
64957;SDS011;51486;50.232;19.208;2022-07-29T03:57:39;3.03;;;1.37;;
64957;SDS011;51486;50.232;19.208;2022-07-29T04:00:05;4.90;;;1.23;;
64957;SDS011;51486;50.232;19.208;2022-07-29T04:02:32;1.37;;;0.90;;
64957;SDS011;51486;50.232;19.208;2022-07-29T04:04:58;1.80;;;1.10;;
64957;SDS011;51486;50.232;19.208;2022-07-29T04:07:24;3.07;;;1.30;;
64957;SDS011;51486;50.232;19.208;2022-07-29T04:09:49;1.63;;;1.00;;
64957;SDS011;51486;50.232;19.208;2022-07-29T04:12:15;1.03;;;1.00;;
64957;SDS011;51486;50.232;19.208;2022-07-29T04:14:40;1.93;;;1.17;;
64957;SDS011;51486;50.232;19.208;2022-07-29T04:17:05;3.43;;;1.07;;
64957;SDS011;51486;50.232;19.208;2022-07-29T04:19:31;1.23;;;0.90;;
64957;SDS011;51486;50.232;19.208;2022-07-29T04:21:57;2.07;;;1.10;;
64957;SDS011;51486;50.232;19.208;2022-07-29T04:24:24;1.10;;;1.00;;
64957;SDS011;51486;50.232;19.208;2022-07-29T04:26:49;1.67;;;0.93;;
64957;SDS011;51486;50.232;19.208;2022-07-29T04:29:15;1.93;;;1.30;;
64957;SDS011;51486;50.232;19.208;2022-07-29T04:31:41;2.53;;;1.30;;
64957;SDS011;51486;50.232;19.208;2022-07-29T04:34:08;2.37;;;1.30;;
64957;SDS011;51486;50.232;19.208;2022-07-29T04:36:34;4.13;;;1.60;;
64957;SDS011;51486;50.232;19.208;2022-07-29T04:39:00;3.13;;;1.30;;
64957;SDS011;51486;50.232;19.208;2022-07-29T04:41:26;5.33;;;1.30;;
64957;SDS011;51486;50.232;19.208;2022-07-29T04:43:52;5.27;;;1.40;;
64957;SDS011;51486;50.232;19.208;2022-07-29T04:46:18;1.53;;;1.17;;
64957;SDS011;51486;50.232;19.208;2022-07-29T04:48:45;0.93;;;0.87;;
64957;SDS011;51486;50.232;19.208;2022-07-29T04:51:13;1.87;;;0.87;;
64957;SDS011;51486;50.232;19.208;2022-07-29T04:53:39;3.90;;;1.40;;
64957;SDS011;51486;50.232;19.208;2022-07-29T04:56:05;1.53;;;0.97;;
64957;SDS011;51486;50.232;19.208;2022-07-29T04:58:30;1.07;;;0.90;;
64957;SDS011;51486;50.232;19.208;2022-07-29T05:00:56;2.23;;;1.03;;
64957;SDS011;51486;50.232;19.208;2022-07-29T05:03:22;1.53;;;1.00;;
64957;SDS011;51486;50.232;19.208;2022-07-29T05:05:47;1.83;;;1.13;;
64957;SDS011;51486;50.232;19.208;2022-07-29T05:08:13;4.63;;;1.90;;
64957;SDS011;51486;50.232;19.208;2022-07-29T05:10:38;2.20;;;1.10;;
64957;SDS011;51486;50.232;19.208;2022-07-29T05:13:07;3.37;;;1.47;;
64957;SDS011;51486;50.232;19.208;2022-07-29T05:15:33;1.73;;;1.10;;
64957;SDS011;51486;50.232;19.208;2022-07-29T05:17:59;1.70;;;1.30;;
64957;SDS011;51486;50.232;19.208;2022-07-29T05:20:25;1.97;;;1.30;;
64957;SDS011;51486;50.232;19.208;2022-07-29T05:22:54;3.33;;;1.60;;
64957;SDS011;51486;50.232;19.208;2022-07-29T05:25:20;1.00;;;0.90;;
64957;SDS011;51486;50.232;19.208;2022-07-29T05:27:46;1.20;;;1.10;;
64957;SDS011;51486;50.232;19.208;2022-07-29T05:30:12;2.47;;;1.60;;
64957;SDS011;51486;50.232;19.208;2022-07-29T05:32:37;1.13;;;0.93;;
64957;SDS011;51486;50.232;19.208;2022-07-29T05:35:03;3.73;;;1.40;;
64957;SDS011;51486;50.232;19.208;2022-07-29T05:37:28;3.20;;;1.53;;
64957;SDS011;51486;50.232;19.208;2022-07-29T05:39:54;2.73;;;1.23;;
64957;SDS011;51486;50.232;19.208;2022-07-29T05:42:19;6.50;;;0.93;;
64957;SDS011;51486;50.232;19.208;2022-07-29T05:44:45;3.10;;;1.53;;
64957;SDS011;51486;50.232;19.208;2022-07-29T05:47:12;1.53;;;1.20;;
64957;SDS011;51486;50.232;19.208;2022-07-29T05:49:38;4.10;;;1.73;;
64957;SDS011;51486;50.232;19.208;2022-07-29T05:52:03;5.00;;;1.57;;
64957;SDS011;51486;50.232;19.208;2022-07-29T05:54:29;1.70;;;1.17;;
64957;SDS011;51486;50.232;19.208;2022-07-29T05:56:54;1.60;;;1.30;;
64957;SDS011;51486;50.232;19.208;2022-07-29T05:59:20;3.90;;;1.93;;
64957;SDS011;51486;50.232;19.208;2022-07-29T06:01:46;7.13;;;1.40;;
64957;SDS011;51486;50.232;19.208;2022-07-29T06:04:12;1.83;;;1.03;;
64957;SDS011;51486;50.232;19.208;2022-07-29T06:06:42;2.33;;;1.73;;
64957;SDS011;51486;50.232;19.208;2022-07-29T06:09:07;10.90;;;1.50;;
64957;SDS011;51486;50.232;19.208;2022-07-29T06:11:33;2.37;;;1.43;;
64957;SDS011;51486;50.232;19.208;2022-07-29T06:13:59;1.93;;;1.00;;
64957;SDS011;51486;50.232;19.208;2022-07-29T06:16:24;1.67;;;1.17;;
64957;SDS011;51486;50.232;19.208;2022-07-29T06:18:49;3.40;;;1.50;;
64957;SDS011;51486;50.232;19.208;2022-07-29T06:21:15;1.37;;;1.20;;
64957;SDS011;51486;50.232;19.208;2022-07-29T06:23:40;2.73;;;1.20;;
64957;SDS011;51486;50.232;19.208;2022-07-29T06:26:06;2.10;;;1.20;;
64957;SDS011;51486;50.232;19.208;2022-07-29T06:28:32;1.50;;;0.90;;
64957;SDS011;51486;50.232;19.208;2022-07-29T06:30:58;1.47;;;0.97;;
64957;SDS011;51486;50.232;19.208;2022-07-29T06:33:24;2.90;;;1.27;;
64957;SDS011;51486;50.232;19.208;2022-07-29T06:35:49;3.47;;;1.07;;
64957;SDS011;51486;50.232;19.208;2022-07-29T06:38:15;2.95;;;1.23;;
64957;SDS011;51486;50.232;19.208;2022-07-29T06:40:41;1.70;;;1.30;;
64957;SDS011;51486;50.232;19.208;2022-07-29T06:43:27;1.92;;;1.15;;
64957;SDS011;51486;50.232;19.208;2022-07-29T06:45:56;1.77;;;1.33;;
64957;SDS011;51486;50.232;19.208;2022-07-29T06:48:22;1.42;;;1.00;;
64957;SDS011;51486;50.232;19.208;2022-07-29T06:50:48;1.95;;;1.20;;
64957;SDS011;51486;50.232;19.208;2022-07-29T06:53:13;0.85;;;0.80;;
64957;SDS011;51486;50.232;19.208;2022-07-29T06:55:38;2.22;;;1.13;;
64957;SDS011;51486;50.232;19.208;2022-07-29T06:58:04;1.20;;;0.85;;
64957;SDS011;51486;50.232;19.208;2022-07-29T07:00:29;45.20;;;1.77;;
64957;SDS011;51486;50.232;19.208;2022-07-29T07:02:55;3.72;;;1.20;;
64957;SDS011;51486;50.232;19.208;2022-07-29T07:05:20;2.40;;;1.17;;
64957;SDS011;51486;50.232;19.208;2022-07-29T07:07:46;3.40;;;1.10;;
64957;SDS011;51486;50.232;19.208;2022-07-29T07:10:11;1.98;;;1.30;;
64957;SDS011;51486;50.232;19.208;2022-07-29T07:12:37;2.83;;;1.27;;
64957;SDS011;51486;50.232;19.208;2022-07-29T07:15:03;3.50;;;1.15;;
64957;SDS011;51486;50.232;19.208;2022-07-29T07:17:29;1.50;;;1.10;;
64957;SDS011;51486;50.232;19.208;2022-07-29T07:19:54;1.42;;;1.00;;
64957;SDS011;51486;50.232;19.208;2022-07-29T07:22:19;1.30;;;0.80;;
64957;SDS011;51486;50.232;19.208;2022-07-29T07:24:45;1.45;;;1.00;;
64957;SDS011;51486;50.232;19.208;2022-07-29T07:27:10;3.28;;;1.58;;
64957;SDS011;51486;50.232;19.208;2022-07-29T07:29:39;2.90;;;1.63;;
64957;SDS011;51486;50.232;19.208;2022-07-29T07:32:06;3.38;;;1.17;;
64957;SDS011;51486;50.232;19.208;2022-07-29T07:34:32;11.23;;;1.60;;
64957;SDS011;51486;50.232;19.208;2022-07-29T07:36:57;1.52;;;1.13;;
64957;SDS011;51486;50.232;19.208;2022-07-29T07:39:24;3.45;;;1.35;;
64957;SDS011;51486;50.232;19.208;2022-07-29T07:41:51;2.50;;;1.30;;
64957;SDS011;51486;50.232;19.208;2022-07-29T07:44:17;7.30;;;1.30;;
64957;SDS011;51486;50.232;19.208;2022-07-29T07:46:42;3.90;;;1.10;;
64957;SDS011;51486;50.232;19.208;2022-07-29T07:49:10;1.83;;;1.08;;
64957;SDS011;51486;50.232;19.208;2022-07-29T07:51:35;3.00;;;1.50;;
64957;SDS011;51486;50.232;19.208;2022-07-29T07:54:01;1.40;;;0.93;;
64957;SDS011;51486;50.232;19.208;2022-07-29T07:56:27;1.98;;;1.33;;
64957;SDS011;51486;50.232;19.208;2022-07-29T07:58:52;1.63;;;1.20;;
64957;SDS011;51486;50.232;19.208;2022-07-29T08:01:18;1.55;;;0.95;;
64957;SDS011;51486;50.232;19.208;2022-07-29T08:03:43;1.98;;;1.23;;
64957;SDS011;51486;50.232;19.208;2022-07-29T08:06:09;3.33;;;1.70;;
64957;SDS011;51486;50.232;19.208;2022-07-29T08:08:35;0.85;;;0.80;;
64957;SDS011;51486;50.232;19.208;2022-07-29T08:11:00;1.90;;;1.42;;
64957;SDS011;51486;50.232;19.208;2022-07-29T08:13:27;1.83;;;1.17;;
64957;SDS011;51486;50.232;19.208;2022-07-29T08:15:53;1.50;;;1.33;;
64957;SDS011;51486;50.232;19.208;2022-07-29T08:18:37;1.42;;;1.17;;
64957;SDS011;51486;50.232;19.208;2022-07-29T08:21:03;2.17;;;1.33;;
64957;SDS011;51486;50.232;19.208;2022-07-29T08:23:29;7.97;;;1.33;;
64957;SDS011;51486;50.232;19.208;2022-07-29T08:26:10;1.67;;;0.95;;
64957;SDS011;51486;50.232;19.208;2022-07-29T08:28:40;1.70;;;1.13;;
64957;SDS011;51486;50.232;19.208;2022-07-29T08:31:10;1.73;;;1.05;;
64957;SDS011;51486;50.232;19.208;2022-07-29T08:33:36;2.08;;;1.05;;
64957;SDS011;51486;50.232;19.208;2022-07-29T08:36:02;5.82;;;1.05;;
64957;SDS011;51486;50.232;19.208;2022-07-29T08:38:28;3.33;;;1.38;;
64957;SDS011;51486;50.232;19.208;2022-07-29T08:40:54;3.90;;;1.38;;
64957;SDS011;51486;50.232;19.208;2022-07-29T08:43:19;17.42;;;1.60;;
64957;SDS011;51486;50.232;19.208;2022-07-29T08:45:47;2.10;;;0.98;;
64957;SDS011;51486;50.232;19.208;2022-07-29T08:48:16;0.82;;;0.80;;
64957;SDS011;51486;50.232;19.208;2022-07-29T08:50:43;3.33;;;1.30;;
64957;SDS011;51486;50.232;19.208;2022-07-29T08:53:10;1.20;;;1.10;;
64957;SDS011;51486;50.232;19.208;2022-07-29T08:55:39;5.13;;;1.13;;
64957;SDS011;51486;50.232;19.208;2022-07-29T08:58:07;5.40;;;1.25;;
64957;SDS011;51486;50.232;19.208;2022-07-29T09:00:33;3.35;;;1.60;;
64957;SDS011;51486;50.232;19.208;2022-07-29T09:03:01;1.45;;;1.20;;
64957;SDS011;51486;50.232;19.208;2022-07-29T09:05:28;1.15;;;1.00;;
64957;SDS011;51486;50.232;19.208;2022-07-29T09:07:54;1.88;;;1.30;;
64957;SDS011;51486;50.232;19.208;2022-07-29T09:10:21;3.15;;;1.15;;
64957;SDS011;51486;50.232;19.208;2022-07-29T09:12:46;1.30;;;0.80;;
64957;SDS011;51486;50.232;19.208;2022-07-29T09:15:13;1.55;;;1.27;;
64957;SDS011;51486;50.232;19.208;2022-07-29T09:17:48;1.63;;;1.00;;
64957;SDS011;51486;50.232;19.208;2022-07-29T09:20:15;6.47;;;1.48;;
64957;SDS011;51486;50.232;19.208;2022-07-29T09:22:43;2.58;;;1.33;;
64957;SDS011;51486;50.232;19.208;2022-07-29T09:25:11;2.30;;;0.95;;
64957;SDS011;51486;50.232;19.208;2022-07-29T09:27:37;1.77;;;1.10;;
64957;SDS011;51486;50.232;19.208;2022-07-29T09:30:06;1.42;;;0.90;;
64957;SDS011;51486;50.232;19.208;2022-07-29T09:32:54;1.80;;;1.10;;
64957;SDS011;51486;50.232;19.208;2022-07-29T09:35:23;4.05;;;1.33;;
64957;SDS011;51486;50.232;19.208;2022-07-29T09:37:50;2.97;;;1.55;;
64957;SDS011;51486;50.232;19.208;2022-07-29T09:40:26;3.22;;;1.30;;
64957;SDS011;51486;50.232;19.208;2022-07-29T09:42:53;1.98;;;1.30;;
64957;SDS011;51486;50.232;19.208;2022-07-29T09:45:29;1.70;;;1.42;;
64957;SDS011;51486;50.232;19.208;2022-07-29T09:47:56;1.35;;;1.02;;
64957;SDS011;51486;50.232;19.208;2022-07-29T09:50:35;2.60;;;1.00;;
64957;SDS011;51486;50.232;19.208;2022-07-29T09:53:01;2.30;;;1.27;;
64957;SDS011;51486;50.232;19.208;2022-07-29T09:55:27;1.27;;;0.93;;
64957;SDS011;51486;50.232;19.208;2022-07-29T09:57:52;1.92;;;1.05;;
64957;SDS011;51486;50.232;19.208;2022-07-29T10:00:19;2.10;;;1.08;;
64957;SDS011;51486;50.232;19.208;2022-07-29T10:02:47;5.95;;;2.58;;
64957;SDS011;51486;50.232;19.208;2022-07-29T10:05:17;2.30;;;1.30;;
64957;SDS011;51486;50.232;19.208;2022-07-29T10:07:45;1.85;;;1.33;;
64957;SDS011;51486;50.232;19.208;2022-07-29T10:10:19;2.92;;;1.45;;
64957;SDS011;51486;50.232;19.208;2022-07-29T10:12:56;1.42;;;1.00;;
64957;SDS011;51486;50.232;19.208;2022-07-29T10:15:26;2.10;;;1.15;;
64957;SDS011;51486;50.232;19.208;2022-07-29T10:17:53;2.20;;;1.30;;
64957;SDS011;51486;50.232;19.208;2022-07-29T10:20:20;6.57;;;1.13;;
64957;SDS011;51486;50.232;19.208;2022-07-29T10:22:48;2.17;;;1.33;;
64957;SDS011;51486;50.232;19.208;2022-07-29T10:25:14;4.47;;;1.42;;
64957;SDS011;51486;50.232;19.208;2022-07-29T10:27:41;3.63;;;1.90;;
64957;SDS011;51486;50.232;19.208;2022-07-29T10:30:08;1.50;;;1.10;;
64957;SDS011;51486;50.232;19.208;2022-07-29T10:40:52;4.10;;;1.10;;
64957;SDS011;51486;50.232;19.208;2022-07-29T10:43:55;2.65;;;1.40;;
64957;SDS011;51486;50.232;19.208;2022-07-29T10:46:24;1.48;;;1.20;;
64957;SDS011;51486;50.232;19.208;2022-07-29T10:49:06;0.95;;;0.80;;
64957;SDS011;51486;50.232;19.208;2022-07-29T10:54:37;1.50;;;1.02;;
64957;SDS011;51486;50.232;19.208;2022-07-29T10:59:39;2.13;;;1.30;;
64957;SDS011;51486;50.232;19.208;2022-07-29T11:05:02;1.42;;;1.15;;
64957;SDS011;51486;50.232;19.208;2022-07-29T11:07:29;1.40;;;1.10;;
64957;SDS011;51486;50.232;19.208;2022-07-29T11:18:19;13.77;;;1.55;;
64957;SDS011;51486;50.232;19.208;2022-07-29T11:20:45;4.53;;;1.05;;
64957;SDS011;51486;50.232;19.208;2022-07-29T11:23:27;4.78;;;1.00;;
64957;SDS011;51486;50.232;19.208;2022-07-29T11:28:59;2.05;;;1.60;;
64957;SDS011;51486;50.232;19.208;2022-07-29T11:31:36;2.20;;;1.17;;
64957;SDS011;51486;50.232;19.208;2022-07-29T11:39:31;1.88;;;1.08;;
64957;SDS011;51486;50.232;19.208;2022-07-29T11:47:24;1.40;;;1.10;;
64957;SDS011;51486;50.232;19.208;2022-07-29T11:49:50;1.77;;;1.20;;
64957;SDS011;51486;50.232;19.208;2022-07-29T11:52:17;1.33;;;0.80;;
64957;SDS011;51486;50.232;19.208;2022-07-29T11:54:43;1.25;;;1.00;;
64957;SDS011;51486;50.232;19.208;2022-07-29T11:57:10;1.17;;;0.95;;
64957;SDS011;51486;50.232;19.208;2022-07-29T11:59:42;3.10;;;1.10;;
64957;SDS011;51486;50.232;19.208;2022-07-29T12:02:09;1.80;;;1.05;;
64957;SDS011;51486;50.232;19.208;2022-07-29T12:04:48;3.25;;;1.20;;
64957;SDS011;51486;50.232;19.208;2022-07-29T12:07:18;1.15;;;0.90;;
64957;SDS011;51486;50.232;19.208;2022-07-29T12:09:52;1.88;;;1.17;;
64957;SDS011;51486;50.232;19.208;2022-07-29T12:12:18;1.88;;;1.15;;
64957;SDS011;51486;50.232;19.208;2022-07-29T12:14:45;1.55;;;1.17;;
64957;SDS011;51486;50.232;19.208;2022-07-29T12:19:56;2.22;;;1.42;;
64957;SDS011;51486;50.232;19.208;2022-07-29T12:22:27;2.95;;;1.42;;
64957;SDS011;51486;50.232;19.208;2022-07-29T12:25:06;1.73;;;1.13;;
64957;SDS011;51486;50.232;19.208;2022-07-29T12:27:40;1.80;;;1.20;;
64957;SDS011;51486;50.232;19.208;2022-07-29T12:30:14;4.35;;;1.52;;
64957;SDS011;51486;50.232;19.208;2022-07-29T12:32:42;2.35;;;1.15;;
64957;SDS011;51486;50.232;19.208;2022-07-29T12:35:11;1.73;;;1.20;;
64957;SDS011;51486;50.232;19.208;2022-07-29T12:37:39;2.50;;;1.15;;
64957;SDS011;51486;50.232;19.208;2022-07-29T12:40:06;1.65;;;1.13;;
64957;SDS011;51486;50.232;19.208;2022-07-29T12:42:33;1.30;;;0.90;;
64957;SDS011;51486;50.232;19.208;2022-07-29T12:44:59;1.80;;;1.27;;
64957;SDS011;51486;50.232;19.208;2022-07-29T12:47:25;2.70;;;1.42;;
64957;SDS011;51486;50.232;19.208;2022-07-29T12:49:52;1.52;;;1.00;;
64957;SDS011;51486;50.232;19.208;2022-07-29T12:52:34;1.23;;;0.93;;
64957;SDS011;51486;50.232;19.208;2022-07-29T12:55:00;2.45;;;1.13;;
64957;SDS011;51486;50.232;19.208;2022-07-29T12:57:26;2.17;;;1.20;;
64957;SDS011;51486;50.232;19.208;2022-07-29T13:02:33;1.25;;;0.98;;
64957;SDS011;51486;50.232;19.208;2022-07-29T13:04:59;2.20;;;1.10;;
64957;SDS011;51486;50.232;19.208;2022-07-29T13:07:26;1.88;;;1.35;;
64957;SDS011;51486;50.232;19.208;2022-07-29T13:09:54;1.85;;;1.38;;
64957;SDS011;51486;50.232;19.208;2022-07-29T13:12:34;1.08;;;0.98;;
64957;SDS011;51486;50.232;19.208;2022-07-29T13:14:59;2.85;;;1.00;;
64957;SDS011;51486;50.232;19.208;2022-07-29T13:17:25;2.17;;;1.30;;
64957;SDS011;51486;50.232;19.208;2022-07-29T13:20:12;9.48;;;1.20;;
64957;SDS011;51486;50.232;19.208;2022-07-29T13:22:39;1.00;;;0.90;;
64957;SDS011;51486;50.232;19.208;2022-07-29T13:25:07;3.70;;;1.10;;
64957;SDS011;51486;50.232;19.208;2022-07-29T13:27:34;1.83;;;1.20;;
64957;SDS011;51486;50.232;19.208;2022-07-29T13:30:02;3.25;;;1.52;;
64957;SDS011;51486;50.232;19.208;2022-07-29T13:32:30;2.45;;;1.27;;
64957;SDS011;51486;50.232;19.208;2022-07-29T13:34:56;1.40;;;1.17;;
64957;SDS011;51486;50.232;19.208;2022-07-29T13:37:24;1.30;;;1.10;;
64957;SDS011;51486;50.232;19.208;2022-07-29T13:39:50;2.63;;;1.48;;
64957;SDS011;51486;50.232;19.208;2022-07-29T13:42:17;1.63;;;1.20;;
64957;SDS011;51486;50.232;19.208;2022-07-29T13:44:42;2.13;;;1.10;;
64957;SDS011;51486;50.232;19.208;2022-07-29T13:47:08;1.35;;;1.05;;
64957;SDS011;51486;50.232;19.208;2022-07-29T13:49:34;1.73;;;1.10;;
64957;SDS011;51486;50.232;19.208;2022-07-29T13:52:00;3.85;;;1.33;;
64957;SDS011;51486;50.232;19.208;2022-07-29T13:54:26;1.52;;;1.08;;
64957;SDS011;51486;50.232;19.208;2022-07-29T13:56:52;1.38;;;1.02;;
64957;SDS011;51486;50.232;19.208;2022-07-29T13:59:17;2.03;;;1.20;;
64957;SDS011;51486;50.232;19.208;2022-07-29T14:01:43;2.72;;;1.40;;
64957;SDS011;51486;50.232;19.208;2022-07-29T14:04:09;1.65;;;1.30;;
64957;SDS011;51486;50.232;19.208;2022-07-29T14:06:35;1.40;;;1.00;;
64957;SDS011;51486;50.232;19.208;2022-07-29T14:09:01;1.90;;;1.30;;
64957;SDS011;51486;50.232;19.208;2022-07-29T14:11:26;1.38;;;1.13;;
64957;SDS011;51486;50.232;19.208;2022-07-29T14:13:52;1.85;;;1.20;;
64957;SDS011;51486;50.232;19.208;2022-07-29T14:16:17;2.10;;;1.35;;
64957;SDS011;51486;50.232;19.208;2022-07-29T14:18:43;3.22;;;1.27;;
64957;SDS011;51486;50.232;19.208;2022-07-29T14:21:08;2.50;;;1.50;;
64957;SDS011;51486;50.232;19.208;2022-07-29T14:23:34;4.43;;;1.38;;
64957;SDS011;51486;50.232;19.208;2022-07-29T14:26:00;2.63;;;1.23;;
64957;SDS011;51486;50.232;19.208;2022-07-29T14:28:26;1.15;;;0.88;;
64957;SDS011;51486;50.232;19.208;2022-07-29T14:30:52;0.88;;;0.80;;
64957;SDS011;51486;50.232;19.208;2022-07-29T14:33:17;1.33;;;1.13;;
64957;SDS011;51486;50.232;19.208;2022-07-29T14:35:43;1.50;;;1.05;;
64957;SDS011;51486;50.232;19.208;2022-07-29T14:38:09;1.63;;;1.17;;
64957;SDS011;51486;50.232;19.208;2022-07-29T14:40:35;1.35;;;1.15;;
64957;SDS011;51486;50.232;19.208;2022-07-29T14:43:01;2.80;;;1.10;;
64957;SDS011;51486;50.232;19.208;2022-07-29T14:45:27;4.57;;;1.05;;
64957;SDS011;51486;50.232;19.208;2022-07-29T14:47:53;2.42;;;1.20;;
64957;SDS011;51486;50.232;19.208;2022-07-29T14:50:19;5.57;;;1.50;;
64957;SDS011;51486;50.232;19.208;2022-07-29T14:52:44;1.67;;;1.23;;
64957;SDS011;51486;50.232;19.208;2022-07-29T14:55:10;1.77;;;1.38;;
64957;SDS011;51486;50.232;19.208;2022-07-29T14:57:36;1.98;;;1.33;;
64957;SDS011;51486;50.232;19.208;2022-07-29T15:00:03;1.90;;;1.33;;
64957;SDS011;51486;50.232;19.208;2022-07-29T15:02:30;1.48;;;1.02;;
64957;SDS011;51486;50.232;19.208;2022-07-29T15:04:56;1.48;;;1.10;;
64957;SDS011;51486;50.232;19.208;2022-07-29T15:07:21;2.78;;;1.45;;
64957;SDS011;51486;50.232;19.208;2022-07-29T15:09:47;2.95;;;1.17;;
64957;SDS011;51486;50.232;19.208;2022-07-29T15:12:12;1.13;;;1.02;;
64957;SDS011;51486;50.232;19.208;2022-07-29T15:14:38;1.80;;;1.20;;
64957;SDS011;51486;50.232;19.208;2022-07-29T15:17:03;2.28;;;1.40;;
64957;SDS011;51486;50.232;19.208;2022-07-29T15:19:29;1.20;;;1.10;;
64957;SDS011;51486;50.232;19.208;2022-07-29T15:21:54;1.48;;;1.30;;
64957;SDS011;51486;50.232;19.208;2022-07-29T15:24:20;1.48;;;1.15;;
64957;SDS011;51486;50.232;19.208;2022-07-29T15:26:45;2.00;;;1.23;;
64957;SDS011;51486;50.232;19.208;2022-07-29T15:29:11;7.43;;;1.45;;
64957;SDS011;51486;50.232;19.208;2022-07-29T15:31:38;3.00;;;1.33;;